sensor_id;sensor_type;location;lat;lon;timestamp;pressure;altitude;pressure_sealevel;temperature;humidity
80321;BME280;69633;47.066;15.450;2023-06-14T00:02:11;97291.72;;;16.63;66.97
80321;BME280;69633;47.066;15.450;2023-06-14T00:04:37;97292.09;;;16.65;66.15
80321;BME280;69633;47.066;15.450;2023-06-14T00:07:07;97284.81;;;16.65;65.97
80321;BME280;69633;47.066;15.450;2023-06-14T00:09:40;97283.72;;;16.73;66.03
80321;BME280;69633;47.066;15.450;2023-06-14T00:12:08;97286.44;;;16.80;64.78
80321;BME280;69633;47.066;15.450;2023-06-14T00:14:34;97288.03;;;16.88;65.22
80321;BME280;69633;47.066;15.450;2023-06-14T00:17:00;97281.47;;;16.79;64.82
80321;BME280;69633;47.066;15.450;2023-06-14T00:19:26;97289.09;;;16.73;65.70
80321;BME280;69633;47.066;15.450;2023-06-14T00:21:52;97275.31;;;16.75;65.75
80321;BME280;69633;47.066;15.450;2023-06-14T00:24:20;97274.94;;;16.76;65.59
80321;BME280;69633;47.066;15.450;2023-06-14T00:26:47;97276.88;;;16.79;65.74
80321;BME280;69633;47.066;15.450;2023-06-14T00:29:13;97272.66;;;16.78;65.42
80321;BME280;69633;47.066;15.450;2023-06-14T00:31:39;97268.41;;;16.74;65.59
80321;BME280;69633;47.066;15.450;2023-06-14T00:34:05;97269.22;;;16.81;65.47
80321;BME280;69633;47.066;15.450;2023-06-14T00:36:30;97273.81;;;16.84;65.23
80321;BME280;69633;47.066;15.450;2023-06-14T00:38:58;97264.63;;;16.82;64.82
80321;BME280;69633;47.066;15.450;2023-06-14T00:41:23;97261.56;;;16.83;64.57
80321;BME280;69633;47.066;15.450;2023-06-14T00:43:50;97258.16;;;16.90;64.68
80321;BME280;69633;47.066;15.450;2023-06-14T00:46:18;97270.00;;;16.85;64.08
80321;BME280;69633;47.066;15.450;2023-06-14T00:48:47;97273.06;;;16.84;64.37
80321;BME280;69633;47.066;15.450;2023-06-14T00:51:14;97274.97;;;16.83;64.40
80321;BME280;69633;47.066;15.450;2023-06-14T00:53:40;97276.50;;;16.84;64.73
80321;BME280;69633;47.066;15.450;2023-06-14T00:56:17;97275.38;;;16.85;64.68
80321;BME280;69633;47.066;15.450;2023-06-14T00:58:47;97277.63;;;16.76;65.79
80321;BME280;69633;47.066;15.450;2023-06-14T01:01:12;97272.25;;;16.76;65.69
80321;BME280;69633;47.066;15.450;2023-06-14T01:03:39;97274.91;;;16.69;67.60
80321;BME280;69633;47.066;15.450;2023-06-14T01:06:36;97273.31;;;16.61;66.64
80321;BME280;69633;47.066;15.450;2023-06-14T01:09:09;97265.59;;;16.53;68.05
80321;BME280;69633;47.066;15.450;2023-06-14T01:12:13;97271.00;;;16.56;67.58
80321;BME280;69633;47.066;15.450;2023-06-14T01:14:41;97264.16;;;16.66;67.32
80321;BME280;69633;47.066;15.450;2023-06-14T01:17:08;97270.28;;;16.63;68.48
80321;BME280;69633;47.066;15.450;2023-06-14T01:19:45;97269.03;;;16.53;67.52
80321;BME280;69633;47.066;15.450;2023-06-14T01:22:12;97264.38;;;16.43;66.96
80321;BME280;69633;47.066;15.450;2023-06-14T01:24:39;97259.75;;;16.40;68.22
80321;BME280;69633;47.066;15.450;2023-06-14T01:27:12;97259.00;;;16.43;68.23
80321;BME280;69633;47.066;15.450;2023-06-14T01:29:40;97252.91;;;16.46;68.26
80321;BME280;69633;47.066;15.450;2023-06-14T01:32:11;97251.06;;;16.57;67.67
80321;BME280;69633;47.066;15.450;2023-06-14T01:34:38;97248.44;;;16.61;67.33
80321;BME280;69633;47.066;15.450;2023-06-14T01:37:05;97241.56;;;16.63;68.13
80321;BME280;69633;47.066;15.450;2023-06-14T01:39:33;97241.56;;;16.63;68.37
80321;BME280;69633;47.066;15.450;2023-06-14T01:42:00;97241.09;;;16.54;67.80
80321;BME280;69633;47.066;15.450;2023-06-14T01:44:27;97243.72;;;16.47;68.51
80321;BME280;69633;47.066;15.450;2023-06-14T01:46:54;97245.63;;;16.43;68.85
80321;BME280;69633;47.066;15.450;2023-06-14T01:49:20;97241.44;;;16.46;68.71
80321;BME280;69633;47.066;15.450;2023-06-14T01:51:47;97239.06;;;16.37;68.57
80321;BME280;69633;47.066;15.450;2023-06-14T01:54:14;97240.63;;;16.38;68.82
80321;BME280;69633;47.066;15.450;2023-06-14T01:56:41;97236.06;;;16.42;69.34
80321;BME280;69633;47.066;15.450;2023-06-14T01:59:08;97241.34;;;16.35;69.45
80321;BME280;69633;47.066;15.450;2023-06-14T02:01:35;97229.06;;;16.27;68.76
80321;BME280;69633;47.066;15.450;2023-06-14T02:04:03;97234.38;;;16.23;69.05
80321;BME280;69633;47.066;15.450;2023-06-14T02:06:29;97241.63;;;16.16;69.16
80321;BME280;69633;47.066;15.450;2023-06-14T02:08:55;97247.31;;;16.11;69.44
80321;BME280;69633;47.066;15.450;2023-06-14T02:11:22;97244.97;;;16.06;69.80
80321;BME280;69633;47.066;15.450;2023-06-14T02:14:00;97243.84;;;16.07;69.53
80321;BME280;69633;47.066;15.450;2023-06-14T02:16:27;97247.25;;;16.04;70.17
80321;BME280;69633;47.066;15.450;2023-06-14T02:18:55;97241.91;;;16.04;70.64
80321;BME280;69633;47.066;15.450;2023-06-14T02:21:23;97239.19;;;16.00;69.71
80321;BME280;69633;47.066;15.450;2023-06-14T02:23:51;97234.53;;;15.93;70.30
80321;BME280;69633;47.066;15.450;2023-06-14T02:26:17;97234.53;;;15.93;70.52
80321;BME280;69633;47.066;15.450;2023-06-14T02:28:42;97241.03;;;15.89;70.38
80321;BME280;69633;47.066;15.450;2023-06-14T02:31:09;97233.75;;;15.89;70.58
80321;BME280;69633;47.066;15.450;2023-06-14T02:33:36;97235.31;;;15.94;70.78
80321;BME280;69633;47.066;15.450;2023-06-14T02:36:02;97231.84;;;15.93;70.84
80321;BME280;69633;47.066;15.450;2023-06-14T02:38:29;97232.63;;;15.94;70.72
80321;BME280;69633;47.066;15.450;2023-06-14T02:40:55;97234.94;;;15.92;70.97
80321;BME280;69633;47.066;15.450;2023-06-14T02:43:23;97247.53;;;15.91;71.39
80321;BME280;69633;47.066;15.450;2023-06-14T02:45:48;97238.75;;;15.94;70.74
80321;BME280;69633;47.066;15.450;2023-06-14T02:48:16;97240.28;;;15.92;71.59
80321;BME280;69633;47.066;15.450;2023-06-14T02:50:43;97241.84;;;15.97;70.49
80321;BME280;69633;47.066;15.450;2023-06-14T02:53:09;97247.19;;;15.97;70.02
80321;BME280;69633;47.066;15.450;2023-06-14T02:55:37;97231.91;;;15.97;70.00
80321;BME280;69633;47.066;15.450;2023-06-14T02:58:05;97230.69;;;15.87;70.39
80321;BME280;69633;47.066;15.450;2023-06-14T03:00:32;97240.97;;;15.82;70.71
80321;BME280;69633;47.066;15.450;2023-06-14T03:02:59;97241.69;;;15.79;70.62
80321;BME280;69633;47.066;15.450;2023-06-14T03:05:28;97250.88;;;15.78;70.51
80321;BME280;69633;47.066;15.450;2023-06-14T03:07:55;97241.72;;;15.82;70.11
80321;BME280;69633;47.066;15.450;2023-06-14T03:10:22;97238.31;;;15.85;69.62
80321;BME280;69633;47.066;15.450;2023-06-14T03:12:49;97229.91;;;15.87;69.17
80321;BME280;69633;47.066;15.450;2023-06-14T03:15:15;97231.84;;;15.93;68.35
80321;BME280;69633;47.066;15.450;2023-06-14T03:17:44;97228.78;;;15.91;68.33
80321;BME280;69633;47.066;15.450;2023-06-14T03:20:11;97224.56;;;15.90;69.05
80321;BME280;69633;47.066;15.450;2023-06-14T03:22:36;97225.78;;;15.97;69.00
80321;BME280;69633;47.066;15.450;2023-06-14T03:25:03;97225.09;;;16.07;69.30
80321;BME280;69633;47.066;15.450;2023-06-14T03:27:29;97227.44;;;16.12;69.28
80321;BME280;69633;47.066;15.450;2023-06-14T03:29:55;97226.28;;;16.16;69.57
80321;BME280;69633;47.066;15.450;2023-06-14T03:32:20;97226.63;;;16.08;69.87
80321;BME280;69633;47.066;15.450;2023-06-14T03:34:47;97238.78;;;15.98;69.03
80321;BME280;69633;47.066;15.450;2023-06-14T03:37:15;97244.13;;;15.94;69.15
80321;BME280;69633;47.066;15.450;2023-06-14T03:39:41;97245.31;;;16.01;68.93
80321;BME280;69633;47.066;15.450;2023-06-14T03:42:13;97238.81;;;16.02;68.60
80321;BME280;69633;47.066;15.450;2023-06-14T03:44:41;97248.38;;;15.99;68.60
80321;BME280;69633;47.066;15.450;2023-06-14T03:47:07;97241.44;;;15.94;69.21
80321;BME280;69633;47.066;15.450;2023-06-14T03:49:36;97253.22;;;15.86;69.82
80321;BME280;69633;47.066;15.450;2023-06-14T03:52:03;97237.22;;;15.93;69.88
80321;BME280;69633;47.066;15.450;2023-06-14T03:54:29;97245.25;;;15.93;69.55
80321;BME280;69633;47.066;15.450;2023-06-14T03:57:01;97251.44;;;16.01;69.58
80321;BME280;69633;47.066;15.450;2023-06-14T03:59:27;97252.63;;;16.07;69.37
80321;BME280;69633;47.066;15.450;2023-06-14T04:01:54;97248.06;;;16.08;69.40
80321;BME280;69633;47.066;15.450;2023-06-14T04:04:21;97248.16;;;16.22;68.53
80321;BME280;69633;47.066;15.450;2023-06-14T04:06:48;97255.94;;;16.37;68.04
80321;BME280;69633;47.066;15.450;2023-06-14T04:09:16;97249.81;;;16.40;68.15
80321;BME280;69633;47.066;15.450;2023-06-14T04:11:44;97257.50;;;16.42;68.07
80321;BME280;69633;47.066;15.450;2023-06-14T04:14:09;97262.88;;;16.49;68.02
80321;BME280;69633;47.066;15.450;2023-06-14T04:16:35;97260.63;;;16.55;67.85
80321;BME280;69633;47.066;15.450;2023-06-14T04:19:03;97260.63;;;16.55;67.56
80321;BME280;69633;47.066;15.450;2023-06-14T04:21:29;97263.16;;;16.33;68.15
80321;BME280;69633;47.066;15.450;2023-06-14T04:23:56;97262.72;;;16.28;68.13
80321;BME280;69633;47.066;15.450;2023-06-14T04:26:23;97266.91;;;16.22;68.28
80321;BME280;69633;47.066;15.450;2023-06-14T04:28:57;97264.31;;;16.36;67.80
80321;BME280;69633;47.066;15.450;2023-06-14T04:31:29;97268.91;;;16.35;67.71
80321;BME280;69633;47.066;15.450;2023-06-14T04:33:56;97275.78;;;16.33;68.06
80321;BME280;69633;47.066;15.450;2023-06-14T04:36:21;97275.84;;;16.40;67.39
80321;BME280;69633;47.066;15.450;2023-06-14T04:38:48;97280.47;;;16.47;67.36
80321;BME280;69633;47.066;15.450;2023-06-14T04:41:14;97276.25;;;16.42;67.82
80321;BME280;69633;47.066;15.450;2023-06-14T04:43:42;97276.59;;;16.40;67.70
80321;BME280;69633;47.066;15.450;2023-06-14T04:46:15;97268.13;;;16.35;67.82
80321;BME280;69633;47.066;15.450;2023-06-14T04:48:44;97273.06;;;16.26;68.29
80321;BME280;69633;47.066;15.450;2023-06-14T04:51:11;97276.50;;;16.26;68.15
80321;BME280;69633;47.066;15.450;2023-06-14T04:53:41;97277.34;;;16.37;67.93
80321;BME280;69633;47.066;15.450;2023-06-14T04:56:13;97279.31;;;16.44;67.75
80321;BME280;69633;47.066;15.450;2023-06-14T04:58:38;97291.13;;;16.39;67.70
80321;BME280;69633;47.066;15.450;2023-06-14T05:01:06;97285.41;;;16.41;67.75
80321;BME280;69633;47.066;15.450;2023-06-14T05:03:36;97284.31;;;16.49;67.55
80321;BME280;69633;47.066;15.450;2023-06-14T05:06:04;97292.84;;;16.62;67.14
80321;BME280;69633;47.066;15.450;2023-06-14T05:08:33;97289.50;;;16.75;66.74
80321;BME280;69633;47.066;15.450;2023-06-14T05:11:00;97300.91;;;16.69;65.99
80321;BME280;69633;47.066;15.450;2023-06-14T05:13:26;97294.69;;;16.54;66.04
80321;BME280;69633;47.066;15.450;2023-06-14T05:15:54;97289.72;;;16.53;66.19
80321;BME280;69633;47.066;15.450;2023-06-14T05:18:23;97298.53;;;16.53;66.42
80321;BME280;69633;47.066;15.450;2023-06-14T05:20:51;97298.22;;;16.65;66.37
80321;BME280;69633;47.066;15.450;2023-06-14T05:23:18;97296.00;;;16.74;66.21
80321;BME280;69633;47.066;15.450;2023-06-14T05:25:46;97302.91;;;16.79;66.11
80321;BME280;69633;47.066;15.450;2023-06-14T05:28:13;97306.84;;;16.99;65.44
80321;BME280;69633;47.066;15.450;2023-06-14T05:30:40;97305.34;;;17.02;65.73
80321;BME280;69633;47.066;15.450;2023-06-14T05:33:06;97309.91;;;16.98;65.66
80321;BME280;69633;47.066;15.450;2023-06-14T05:35:34;97312.59;;;16.98;65.35
80321;BME280;69633;47.066;15.450;2023-06-14T05:38:00;97309.81;;;16.83;66.17
80321;BME280;69633;47.066;15.450;2023-06-14T05:40:26;97312.16;;;16.88;65.56
80321;BME280;69633;47.066;15.450;2023-06-14T05:42:53;97310.59;;;16.87;65.67
80321;BME280;69633;47.066;15.450;2023-06-14T05:45:19;97313.75;;;17.00;65.17
80321;BME280;69633;47.066;15.450;2023-06-14T05:47:44;97312.25;;;17.10;65.00
80321;BME280;69633;47.066;15.450;2023-06-14T05:50:12;97312.19;;;16.99;65.42
80321;BME280;69633;47.066;15.450;2023-06-14T05:52:39;97317.09;;;16.79;66.12
80321;BME280;69633;47.066;15.450;2023-06-14T05:55:06;97316.63;;;16.70;66.90
80321;BME280;69633;47.066;15.450;2023-06-14T05:57:32;97325.75;;;16.59;68.55
80321;BME280;69633;47.066;15.450;2023-06-14T06:00:06;97325.66;;;16.48;69.25
80321;BME280;69633;47.066;15.450;2023-06-14T06:02:53;97330.19;;;16.40;71.69
80321;BME280;69633;47.066;15.450;2023-06-14T06:05:18;97333.34;;;16.53;70.07
80321;BME280;69633;47.066;15.450;2023-06-14T06:07:46;97326.53;;;16.59;70.30
80321;BME280;69633;47.066;15.450;2023-06-14T06:10:12;97336.97;;;16.75;70.98
80321;BME280;69633;47.066;15.450;2023-06-14T06:12:40;97340.44;;;16.79;69.63
80321;BME280;69633;47.066;15.450;2023-06-14T06:15:07;97347.34;;;16.83;70.91
80321;BME280;69633;47.066;15.450;2023-06-14T06:17:39;97342.75;;;16.80;71.33
80321;BME280;69633;47.066;15.450;2023-06-14T06:20:06;97347.41;;;16.90;70.59
80321;BME280;69633;47.066;15.450;2023-06-14T06:22:36;97348.56;;;16.89;71.26
80321;BME280;69633;47.066;15.450;2023-06-14T06:25:03;97346.97;;;16.85;71.34
80321;BME280;69633;47.066;15.450;2023-06-14T06:27:28;97343.19;;;16.89;71.07
80321;BME280;69633;47.066;15.450;2023-06-14T06:30:00;97346.25;;;16.91;71.54
80321;BME280;69633;47.066;15.450;2023-06-14T06:32:27;97359.34;;;17.04;71.78
80321;BME280;69633;47.066;15.450;2023-06-14T06:34:52;97360.16;;;17.08;70.50
80321;BME280;69633;47.066;15.450;2023-06-14T06:37:19;97365.97;;;17.17;69.88
80321;BME280;69633;47.066;15.450;2023-06-14T06:39:46;97372.88;;;17.25;70.96
80321;BME280;69633;47.066;15.450;2023-06-14T06:42:14;97368.94;;;17.05;69.91
80321;BME280;69633;47.066;15.450;2023-06-14T06:44:40;97369.69;;;17.02;70.11
80321;BME280;69633;47.066;15.450;2023-06-14T06:47:06;97372.75;;;17.04;70.15
80321;BME280;69633;47.066;15.450;2023-06-14T06:49:32;97371.66;;;17.12;69.92
80321;BME280;69633;47.066;15.450;2023-06-14T06:52:01;97376.69;;;17.17;69.46
80321;BME280;69633;47.066;15.450;2023-06-14T06:54:28;97375.94;;;17.23;69.07
80321;BME280;69633;47.066;15.450;2023-06-14T06:56:55;97374.44;;;17.33;69.60
80321;BME280;69633;47.066;15.450;2023-06-14T06:59:20;97377.94;;;17.44;67.27
80321;BME280;69633;47.066;15.450;2023-06-14T07:01:47;97378.75;;;17.52;65.58
80321;BME280;69633;47.066;15.450;2023-06-14T07:04:14;97383.34;;;17.51;66.75
80321;BME280;69633;47.066;15.450;2023-06-14T07:06:42;97391.00;;;17.46;66.03
80321;BME280;69633;47.066;15.450;2023-06-14T07:09:10;97392.91;;;17.45;65.33
80321;BME280;69633;47.066;15.450;2023-06-14T07:11:44;97398.22;;;17.34;65.48
80321;BME280;69633;47.066;15.450;2023-06-14T07:14:10;97402.84;;;17.37;63.98
80321;BME280;69633;47.066;15.450;2023-06-14T07:16:36;97409.00;;;17.45;65.20
80321;BME280;69633;47.066;15.450;2023-06-14T07:19:03;97410.94;;;17.48;65.46
80321;BME280;69633;47.066;15.450;2023-06-14T07:21:36;97416.56;;;17.22;63.72
80321;BME280;69633;47.066;15.450;2023-06-14T07:24:06;97414.06;;;16.96;63.78
80321;BME280;69633;47.066;15.450;2023-06-14T07:26:35;97419.00;;;16.86;65.92
80321;BME280;69633;47.066;15.450;2023-06-14T07:29:01;97418.63;;;16.88;66.00
80321;BME280;69633;47.066;15.450;2023-06-14T07:31:33;97429.41;;;16.95;65.33
80321;BME280;69633;47.066;15.450;2023-06-14T07:33:59;97425.56;;;16.96;65.07
80321;BME280;69633;47.066;15.450;2023-06-14T07:36:27;97424.00;;;16.91;65.42
80321;BME280;69633;47.066;15.450;2023-06-14T07:38:53;97422.91;;;17.00;66.45
80321;BME280;69633;47.066;15.450;2023-06-14T07:41:20;97429.81;;;16.97;66.46
80321;BME280;69633;47.066;15.450;2023-06-14T07:43:46;97432.78;;;16.85;66.69
80321;BME280;69633;47.066;15.450;2023-06-14T07:46:12;97436.47;;;16.70;66.50
80321;BME280;69633;47.066;15.450;2023-06-14T07:48:38;97436.06;;;16.64;66.82
80321;BME280;69633;47.066;15.450;2023-06-14T07:51:03;97436.88;;;16.68;66.71
80321;BME280;69633;47.066;15.450;2023-06-14T07:53:29;97444.31;;;16.49;67.01
80321;BME280;69633;47.066;15.450;2023-06-14T07:55:58;97437.41;;;16.48;66.86
80321;BME280;69633;47.066;15.450;2023-06-14T07:58:26;97450.56;;;16.60;67.41
80321;BME280;69633;47.066;15.450;2023-06-14T08:00:52;97453.25;;;16.60;66.33
80321;BME280;69633;47.066;15.450;2023-06-14T08:03:20;97463.25;;;16.66;67.17
80321;BME280;69633;47.066;15.450;2023-06-14T08:06:06;97467.81;;;16.62;66.47
80321;BME280;69633;47.066;15.450;2023-06-14T08:08:35;97477.38;;;16.60;66.22
80321;BME280;69633;47.066;15.450;2023-06-14T08:11:00;97481.00;;;16.44;66.55
80321;BME280;69633;47.066;15.450;2023-06-14T08:13:28;97492.13;;;16.47;67.74
80321;BME280;69633;47.066;15.450;2023-06-14T08:15:54;97493.75;;;16.55;66.22
80321;BME280;69633;47.066;15.450;2023-06-14T08:18:27;97491.84;;;16.55;68.04
80321;BME280;69633;47.066;15.450;2023-06-14T08:20:54;97489.41;;;16.43;67.60
80321;BME280;69633;47.066;15.450;2023-06-14T08:23:20;97507.63;;;16.27;67.85
80321;BME280;69633;47.066;15.450;2023-06-14T08:25:48;97506.34;;;16.17;68.93
80321;BME280;69633;47.066;15.450;2023-06-14T08:28:16;97513.53;;;16.10;70.24
80321;BME280;69633;47.066;15.450;2023-06-14T08:30:42;97515.69;;;15.97;68.07
80321;BME280;69633;47.066;15.450;2023-06-14T08:33:09;97525.72;;;16.04;69.29
80321;BME280;69633;47.066;15.450;2023-06-14T08:35:37;97522.84;;;16.19;69.58
80321;BME280;69633;47.066;15.450;2023-06-14T08:38:06;97524.25;;;16.10;71.08
80321;BME280;69633;47.066;15.450;2023-06-14T08:40:37;97528.19;;;16.19;70.24
80321;BME280;69633;47.066;15.450;2023-06-14T08:43:05;97527.44;;;16.19;70.68
80321;BME280;69633;47.066;15.450;2023-06-14T08:45:32;97527.97;;;16.02;71.10
80321;BME280;69633;47.066;15.450;2023-06-14T08:47:59;97523.13;;;16.11;71.03
80321;BME280;69633;47.066;15.450;2023-06-14T08:50:27;97528.19;;;16.19;71.70
80321;BME280;69633;47.066;15.450;2023-06-14T08:53:00;97532.50;;;16.31;70.59
80321;BME280;69633;47.066;15.450;2023-06-14T08:55:30;97525.84;;;16.14;70.61
80321;BME280;69633;47.066;15.450;2023-06-14T08:57:58;97534.63;;;16.15;72.26
80321;BME280;69633;47.066;15.450;2023-06-14T09:00:26;97539.88;;;16.37;71.98
80321;BME280;69633;47.066;15.450;2023-06-14T09:02:54;97538.53;;;16.54;70.90
80321;BME280;69633;47.066;15.450;2023-06-14T09:05:24;97540.66;;;16.71;70.94
80321;BME280;69633;47.066;15.450;2023-06-14T09:07:51;97552.94;;;16.42;70.50
80321;BME280;69633;47.066;15.450;2023-06-14T09:10:22;97550.47;;;16.27;71.55
80321;BME280;69633;47.066;15.450;2023-06-14T09:12:48;97545.16;;;16.30;72.03
80321;BME280;69633;47.066;15.450;2023-06-14T09:15:15;97555.91;;;16.34;71.51
80321;BME280;69633;47.066;15.450;2023-06-14T09:17:43;97545.19;;;16.34;71.01
80321;BME280;69633;47.066;15.450;2023-06-14T09:20:10;97549.03;;;16.66;71.45
80321;BME280;69633;47.066;15.450;2023-06-14T09:22:40;97539.88;;;16.71;71.43
80321;BME280;69633;47.066;15.450;2023-06-14T09:25:07;97550.09;;;16.58;70.08
80321;BME280;69633;47.066;15.450;2023-06-14T09:27:34;97542.50;;;16.64;70.03
80321;BME280;69633;47.066;15.450;2023-06-14T09:30:03;97537.63;;;16.76;70.61
80321;BME280;69633;47.066;15.450;2023-06-14T09:32:29;97529.72;;;16.87;68.77
80321;BME280;69633;47.066;15.450;2023-06-14T09:34:56;97538.28;;;17.07;69.64
80321;BME280;69633;47.066;15.450;2023-06-14T09:37:30;97543.03;;;16.80;68.99
80321;BME280;69633;47.066;15.450;2023-06-14T09:39:59;97543.28;;;16.64;69.57
80321;BME280;69633;47.066;15.450;2023-06-14T09:42:25;97548.31;;;16.73;69.53
80321;BME280;69633;47.066;15.450;2023-06-14T09:44:56;97545.84;;;16.94;67.79
80321;BME280;69633;47.066;15.450;2023-06-14T09:47:23;97538.91;;;17.37;66.87
80321;BME280;69633;47.066;15.450;2023-06-14T09:49:51;97535.44;;;17.33;67.27
80321;BME280;69633;47.066;15.450;2023-06-14T09:52:22;97534.94;;;17.17;66.74
80321;BME280;69633;47.066;15.450;2023-06-14T09:55:12;97537.25;;;17.22;69.02
80321;BME280;69633;47.066;15.450;2023-06-14T09:57:40;97540.75;;;17.26;67.24
80321;BME280;69633;47.066;15.450;2023-06-14T10:00:07;97537.25;;;17.69;67.22
80321;BME280;69633;47.066;15.450;2023-06-14T10:02:40;97538.91;;;17.92;65.98
80321;BME280;69633;47.066;15.450;2023-06-14T10:05:11;97525.78;;;17.72;64.98
80321;BME280;69633;47.066;15.450;2023-06-14T10:07:59;97540.16;;;17.47;65.54
80321;BME280;69633;47.066;15.450;2023-06-14T10:10:26;97549.34;;;17.49;66.51
80321;BME280;69633;47.066;15.450;2023-06-14T10:12:54;97541.56;;;17.33;65.51
80321;BME280;69633;47.066;15.450;2023-06-14T10:15:32;97535.56;;;17.51;65.73
80321;BME280;69633;47.066;15.450;2023-06-14T10:24:12;97527.75;;;19.22;64.33
80321;BME280;69633;47.066;15.450;2023-06-14T10:26:51;97531.94;;;18.73;60.07
80321;BME280;69633;47.066;15.450;2023-06-14T10:29:18;97531.50;;;18.54;63.00
80321;BME280;69633;47.066;15.450;2023-06-14T10:31:49;97522.19;;;18.37;62.71
80321;BME280;69633;47.066;15.450;2023-06-14T10:34:29;97533.06;;;18.65;60.51
80321;BME280;69633;47.066;15.450;2023-06-14T10:37:15;97536.13;;;18.60;61.81
80321;BME280;69633;47.066;15.450;2023-06-14T10:39:45;97519.59;;;18.51;61.79
80321;BME280;69633;47.066;15.450;2023-06-14T10:42:11;97531.59;;;19.00;61.71
80321;BME280;69633;47.066;15.450;2023-06-14T10:47:37;97523.47;;;19.81;58.23
80321;BME280;69633;47.066;15.450;2023-06-14T10:50:29;97518.47;;;19.72;56.64
80321;BME280;69633;47.066;15.450;2023-06-14T10:52:57;97508.50;;;19.59;58.75
80321;BME280;69633;47.066;15.450;2023-06-14T10:55:38;97503.50;;;19.64;56.51
80321;BME280;69633;47.066;15.450;2023-06-14T10:58:04;97509.72;;;20.48;55.77
80321;BME280;69633;47.066;15.450;2023-06-14T11:00:33;97498.44;;;21.23;53.82
80321;BME280;69633;47.066;15.450;2023-06-14T11:09:27;97486.75;;;21.36;53.92
80321;BME280;69633;47.066;15.450;2023-06-14T11:11:31;97491.88;;;20.72;55.01
80321;BME280;69633;47.066;15.450;2023-06-14T11:14:19;97490.25;;;20.82;54.35
80321;BME280;69633;47.066;15.450;2023-06-14T11:16:49;97492.28;;;21.18;52.96
80321;BME280;69633;47.066;15.450;2023-06-14T11:19:16;97489.44;;;21.40;52.91
80321;BME280;69633;47.066;15.450;2023-06-14T11:21:47;97493.19;;;21.01;53.24
80321;BME280;69633;47.066;15.450;2023-06-14T11:24:13;97488.47;;;21.16;53.29
80321;BME280;69633;47.066;15.450;2023-06-14T11:26:41;97488.19;;;21.00;52.83
80321;BME280;69633;47.066;15.450;2023-06-14T11:29:10;97488.66;;;20.91;52.64
80321;BME280;69633;47.066;15.450;2023-06-14T11:31:36;97485.19;;;20.91;52.57
80321;BME280;69633;47.066;15.450;2023-06-14T11:34:03;97492.34;;;20.56;53.93
80321;BME280;69633;47.066;15.450;2023-06-14T11:36:33;97488.50;;;20.57;54.20
80321;BME280;69633;47.066;15.450;2023-06-14T11:39:06;97493.91;;;20.57;53.26
80321;BME280;69633;47.066;15.450;2023-06-14T11:41:42;97492.66;;;20.72;53.22
80321;BME280;69633;47.066;15.450;2023-06-14T11:44:19;97485.00;;;20.60;52.63
80321;BME280;69633;47.066;15.450;2023-06-14T11:46:46;97471.66;;;20.94;52.06
80321;BME280;69633;47.066;15.450;2023-06-14T11:49:11;97472.03;;;21.44;50.68
80321;BME280;69633;47.066;15.450;2023-06-14T11:51:37;97480.31;;;21.23;52.02
80321;BME280;69633;47.066;15.450;2023-06-14T11:54:04;97479.16;;;21.24;51.97
80321;BME280;69633;47.066;15.450;2023-06-14T11:56:32;97468.03;;;21.56;51.79
80321;BME280;69633;47.066;15.450;2023-06-14T11:58:58;97470.38;;;21.54;51.61
80321;BME280;69633;47.066;15.450;2023-06-14T12:01:25;97470.66;;;21.26;51.95
80321;BME280;69633;47.066;15.450;2023-06-14T12:03:54;97466.78;;;21.27;52.35
80321;BME280;69633;47.066;15.450;2023-06-14T12:06:29;97470.88;;;20.94;52.70
80321;BME280;69633;47.066;15.450;2023-06-14T12:08:58;97469.09;;;21.28;52.09
80321;BME280;69633;47.066;15.450;2023-06-14T12:11:32;97465.56;;;21.68;50.75
80321;BME280;69633;47.066;15.450;2023-06-14T12:14:00;97462.38;;;21.43;51.89
80321;BME280;69633;47.066;15.450;2023-06-14T12:16:36;97457.78;;;20.92;52.38
80321;BME280;69633;47.066;15.450;2023-06-14T12:19:16;97466.94;;;20.57;52.87
80321;BME280;69633;47.066;15.450;2023-06-14T12:21:45;97458.47;;;21.03;52.50
80321;BME280;69633;47.066;15.450;2023-06-14T12:24:16;97458.59;;;21.71;51.55
80321;BME280;69633;47.066;15.450;2023-06-14T12:26:42;97467.72;;;21.84;51.20
80321;BME280;69633;47.066;15.450;2023-06-14T12:29:09;97463.81;;;21.92;50.77
80321;BME280;69633;47.066;15.450;2023-06-14T12:31:38;97464.56;;;21.55;50.75
80321;BME280;69633;47.066;15.450;2023-06-14T12:34:09;97454.56;;;21.52;51.11
80321;BME280;69633;47.066;15.450;2023-06-14T12:36:36;97459.56;;;21.88;50.63
80321;BME280;69633;47.066;15.450;2023-06-14T12:39:08;97459.19;;;22.20;49.36
80321;BME280;69633;47.066;15.450;2023-06-14T12:41:35;97457.56;;;22.26;48.59
80321;BME280;69633;47.066;15.450;2023-06-14T12:44:03;97452.88;;;21.65;49.68
80321;BME280;69633;47.066;15.450;2023-06-14T12:46:37;97444.78;;;21.65;50.10
80321;BME280;69633;47.066;15.450;2023-06-14T12:49:08;97444.78;;;21.65;50.33
80321;BME280;69633;47.066;15.450;2023-06-14T12:51:34;97450.25;;;21.96;49.88
80321;BME280;69633;47.066;15.450;2023-06-14T12:54:00;97451.06;;;21.93;50.18
80321;BME280;69633;47.066;15.450;2023-06-14T12:56:28;97445.72;;;21.86;50.36
80321;BME280;69633;47.066;15.450;2023-06-14T12:58:53;97443.88;;;21.76;50.88
80321;BME280;69633;47.066;15.450;2023-06-14T13:01:20;97439.72;;;21.30;51.68
80321;BME280;69633;47.066;15.450;2023-06-14T13:03:47;97436.44;;;21.49;51.72
80321;BME280;69633;47.066;15.450;2023-06-14T13:06:14;97439.16;;;21.12;51.91
80321;BME280;69633;47.066;15.450;2023-06-14T13:08:40;97435.28;;;21.50;51.37
80321;BME280;69633;47.066;15.450;2023-06-14T13:11:06;97439.38;;;21.65;51.24
80321;BME280;69633;47.066;15.450;2023-06-14T13:13:31;97438.59;;;21.65;50.74